createdAt,value
2023-02-28T00:00:48.508Z,9.47
2023-02-28T00:03:18.122Z,8.87
2023-02-28T00:05:44.847Z,7.80
2023-02-28T00:08:17.549Z,9.30
2023-02-28T00:10:44.729Z,9.30
2023-02-28T00:13:14.410Z,9.83
2023-02-28T00:15:41.189Z,8.63
2023-02-28T00:18:07.902Z,8.67
2023-02-28T00:20:38.303Z,8.57
2023-02-28T00:23:08.563Z,8.27
2023-02-28T00:25:39.029Z,9.20
2023-02-28T00:28:05.621Z,10.70
2023-02-28T00:30:35.481Z,8.40
2023-02-28T00:33:05.520Z,8.47
2023-02-28T00:35:34.918Z,9.77
2023-02-28T00:38:04.812Z,9.97
2023-02-28T00:40:38.682Z,9.63
2023-02-28T00:43:07.066Z,8.30
2023-02-28T00:45:33.762Z,10.57
2023-02-28T00:48:00.903Z,9.10
2023-02-28T00:50:38.969Z,9.60
2023-02-28T00:53:05.617Z,9.17
2023-02-28T00:55:36.088Z,8.93
2023-02-28T00:58:08.171Z,9.30
2023-02-28T01:00:37.501Z,8.27
2023-02-28T01:03:06.669Z,9.10
2023-02-28T01:05:36.605Z,10.03
2023-02-28T01:08:05.867Z,9.43
2023-02-28T01:10:36.176Z,9.30
2023-02-28T01:13:08.545Z,9.43
2023-02-28T01:15:37.727Z,9.57
2023-02-28T01:18:05.427Z,10.80
2023-02-28T01:20:36.817Z,9.03
2023-02-28T01:23:03.833Z,10.20
2023-02-28T01:25:38.754Z,9.13
2023-02-28T01:28:06.872Z,8.70
2023-02-28T01:30:34.625Z,10.33
2023-02-28T01:33:03.570Z,9.83
2023-02-28T01:35:36.579Z,9.90
2023-02-28T01:38:20.441Z,11.40
2023-02-28T01:40:53.492Z,11.33
2023-02-28T01:43:26.556Z,11.13
2023-02-28T01:45:56.976Z,9.43
2023-02-28T01:48:36.670Z,9.07
2023-02-28T01:51:10.365Z,9.03
2023-02-28T01:53:47.537Z,10.73
2023-02-28T01:56:23.218Z,8.37
2023-02-28T01:59:09.727Z,10.77
2023-02-28T02:01:39.152Z,10.00
2023-02-28T02:04:06.748Z,10.63
2023-02-28T02:06:44.017Z,10.70
2023-02-28T02:09:11.171Z,10.40
2023-02-28T02:11:38.864Z,9.80
2023-02-28T02:14:18.013Z,10.33
2023-02-28T02:17:03.423Z,9.97
2023-02-28T02:19:42.939Z,10.50
2023-02-28T02:22:32.292Z,9.23
2023-02-28T02:25:13.322Z,10.43
2023-02-28T02:28:14.380Z,9.03
2023-02-28T02:30:49.983Z,11.03
2023-02-28T02:33:44.641Z,9.37
2023-02-28T02:36:18.983Z,11.40
2023-02-28T02:38:55.836Z,9.77
2023-02-28T02:41:42.279Z,9.63
2023-02-28T02:44:15.315Z,10.53
2023-02-28T02:46:44.799Z,9.50
2023-02-28T02:49:28.508Z,11.37
2023-02-28T02:51:56.128Z,9.90
2023-02-28T02:54:30.992Z,11.80
2023-02-28T02:57:05.746Z,10.07
2023-02-28T02:59:33.347Z,10.20
2023-02-28T03:02:05.325Z,11.27
2023-02-28T03:04:37.955Z,10.47
2023-02-28T03:07:05.032Z,10.40
2023-02-28T03:09:40.748Z,9.83
2023-02-28T03:12:11.306Z,11.17
2023-02-28T03:15:07.461Z,10.83
2023-02-28T03:17:52.472Z,9.13
2023-02-28T03:20:37.429Z,12.07
2023-02-28T03:23:10.065Z,11.23
2023-02-28T03:26:03.798Z,11.90
2023-02-28T03:28:45.432Z,10.07
2023-02-28T03:31:34.058Z,10.63
2023-02-28T03:34:08.975Z,10.63
2023-02-28T03:36:49.406Z,10.67
2023-02-28T03:39:26.681Z,10.23
2023-02-28T03:42:08.271Z,12.63
2023-02-28T03:44:41.168Z,10.60
2023-02-28T03:47:30.438Z,11.33
2023-02-28T03:50:18.276Z,11.63
2023-02-28T03:53:15.761Z,10.77
2023-02-28T03:55:46.333Z,12.70
2023-02-28T03:58:21.905Z,11.13
2023-02-28T04:00:55.768Z,10.27
2023-02-28T04:03:35.320Z,11.83
2023-02-28T04:06:05.935Z,10.63
2023-02-28T04:08:33.002Z,10.70
2023-02-28T04:11:15.760Z,12.37
2023-02-28T04:13:49.533Z,14.00
2023-02-28T04:16:33.897Z,17.67
2023-02-28T04:19:06.081Z,13.33
2023-02-28T04:21:41.817Z,12.17
2023-02-28T04:24:15.665Z,15.33
2023-02-28T04:26:45.574Z,11.37
2023-02-28T04:29:14.533Z,13.07
2023-02-28T04:31:41.303Z,11.07
2023-02-28T04:34:08.066Z,12.10
2023-02-28T04:36:37.947Z,13.90
2023-02-28T04:39:07.504Z,12.70
2023-02-28T04:41:36.719Z,11.97
2023-02-28T04:44:04.004Z,12.93
2023-02-28T04:46:31.675Z,13.00
2023-02-28T04:48:59.154Z,11.77
2023-02-28T04:51:25.922Z,12.73
2023-02-28T04:53:54.735Z,11.37
2023-02-28T04:56:22.066Z,13.23
2023-02-28T04:58:49.220Z,13.17
2023-02-28T05:01:28.998Z,11.80
2023-02-28T05:03:57.665Z,12.57
2023-02-28T05:06:25.636Z,15.13
2023-02-28T05:08:52.779Z,12.77
2023-02-28T05:11:29.424Z,11.57
2023-02-28T05:14:01.747Z,10.97
2023-02-28T05:16:30.738Z,12.93
2023-02-28T05:18:59.118Z,11.53
2023-02-28T05:21:28.793Z,11.30
2023-02-28T05:24:02.864Z,13.97
2023-02-28T05:26:30.546Z,12.00
2023-02-28T05:28:57.458Z,12.37
2023-02-28T05:31:24.564Z,12.03
2023-02-28T05:33:51.263Z,11.80
2023-02-28T05:36:18.311Z,12.93
2023-02-28T05:38:53.581Z,12.97
2023-02-28T05:41:21.003Z,12.87
2023-02-28T05:43:55.946Z,12.13
2023-02-28T05:46:24.807Z,12.10
2023-02-28T05:48:52.141Z,14.27
2023-02-28T05:51:22.304Z,14.27
2023-02-28T05:53:50.213Z,15.87
2023-02-28T05:56:16.895Z,14.90
2023-02-28T05:58:44.768Z,13.60
2023-02-28T06:01:38.101Z,14.60
2023-02-28T06:04:14.328Z,16.07
2023-02-28T06:06:47.207Z,16.47
2023-02-28T06:09:14.358Z,14.23
2023-02-28T06:11:41.100Z,13.57
2023-02-28T06:14:07.987Z,16.63
2023-02-28T06:16:35.584Z,19.13
2023-02-28T06:19:03.940Z,17.67
2023-02-28T06:21:31.431Z,17.57
2023-02-28T06:23:59.378Z,14.87
2023-02-28T06:26:26.431Z,17.73
2023-02-28T06:28:53.079Z,16.10
2023-02-28T06:31:20.042Z,15.93
2023-02-28T06:33:47.072Z,15.03
2023-02-28T06:36:15.344Z,14.47
2023-02-28T06:38:44.787Z,14.23
2023-02-28T06:41:11.785Z,14.80
2023-02-28T06:43:41.156Z,14.53
2023-02-28T06:46:09.514Z,15.57
2023-02-28T06:48:36.601Z,14.10
2023-02-28T06:51:15.163Z,14.67
2023-02-28T06:53:42.146Z,13.33
2023-02-28T06:56:14.181Z,13.80
2023-02-28T06:58:41.274Z,16.10
2023-02-28T07:01:08.889Z,14.83
2023-02-28T07:03:36.831Z,15.40
2023-02-28T07:06:05.079Z,16.17
2023-02-28T07:08:32.679Z,15.70
2023-02-28T07:10:59.504Z,17.53
2023-02-28T07:13:29.060Z,14.73
2023-02-28T07:16:01.066Z,14.87
2023-02-28T07:18:28.391Z,13.03
2023-02-28T07:20:58.138Z,16.97
2023-02-28T07:23:24.950Z,12.70
2023-02-28T07:25:52.081Z,13.03
2023-02-28T07:28:18.756Z,13.40
2023-02-28T07:30:45.428Z,13.60
2023-02-28T07:33:13.106Z,14.77
2023-02-28T07:35:45.841Z,14.27
2023-02-28T07:38:14.760Z,14.30
2023-02-28T07:40:41.631Z,15.70
2023-02-28T07:43:08.299Z,12.53
2023-02-28T07:45:37.909Z,13.07
2023-02-28T07:48:07.053Z,15.00
2023-02-28T07:50:33.716Z,12.53
2023-02-28T07:53:00.535Z,12.97
2023-02-28T07:55:27.895Z,12.40
2023-02-28T07:57:55.686Z,12.63
2023-02-28T08:00:23.021Z,14.13
2023-02-28T08:02:52.851Z,12.80
2023-02-28T08:05:21.884Z,13.43
2023-02-28T08:07:50.631Z,12.87
2023-02-28T08:10:17.319Z,13.30
2023-02-28T08:12:45.113Z,12.73
2023-02-28T08:15:11.955Z,13.80
2023-02-28T08:17:38.729Z,12.90
2023-02-28T08:20:05.886Z,14.33
2023-02-28T08:22:32.595Z,14.33
2023-02-28T08:24:59.280Z,15.80
2023-02-28T08:27:25.989Z,14.03
2023-02-28T08:29:52.665Z,15.20
2023-02-28T08:32:29.354Z,13.43
2023-02-28T08:34:56.686Z,12.37
2023-02-28T08:37:23.331Z,15.27
2023-02-28T08:39:50.008Z,13.73
2023-02-28T08:42:16.691Z,14.23
2023-02-28T08:44:43.439Z,12.97
2023-02-28T08:47:10.101Z,12.97
2023-02-28T08:49:38.535Z,14.37
2023-02-28T08:52:05.214Z,13.53
2023-02-28T08:54:34.358Z,14.00
2023-02-28T08:57:00.953Z,15.77
2023-02-28T08:59:27.631Z,14.47
2023-02-28T09:01:54.269Z,13.30
2023-02-28T09:04:23.390Z,15.37
2023-02-28T09:06:51.478Z,13.13
2023-02-28T09:09:18.129Z,12.10
2023-02-28T09:11:44.824Z,16.40
2023-02-28T09:14:11.647Z,15.33
2023-02-28T09:16:38.549Z,14.50
2023-02-28T09:19:05.378Z,12.47
2023-02-28T09:21:32.179Z,14.70
2023-02-28T09:23:58.997Z,12.07
2023-02-28T09:26:32.413Z,13.53
2023-02-28T09:29:05.931Z,12.80
2023-02-28T09:31:32.749Z,14.07
2023-02-28T09:34:02.542Z,12.97
2023-02-28T09:36:41.888Z,11.63
2023-02-28T09:39:11.559Z,12.73
2023-02-28T09:41:51.773Z,12.40
2023-02-28T09:44:38.885Z,11.47
2023-02-28T09:47:19.817Z,12.63
2023-02-28T09:49:48.922Z,10.90
2023-02-28T09:52:20.463Z,12.70
2023-02-28T09:54:47.360Z,12.00
2023-02-28T09:57:36.532Z,12.90
2023-02-28T10:00:11.361Z,11.37
2023-02-28T10:03:20.914Z,14.93
2023-02-28T10:05:59.791Z,14.67
2023-02-28T10:08:35.052Z,12.63
2023-02-28T10:11:05.567Z,14.80
2023-02-28T10:13:59.118Z,12.40
2023-02-28T10:16:31.261Z,14.00
2023-02-28T10:19:04.974Z,14.17
2023-02-28T10:21:36.951Z,11.73
2023-02-28T10:26:39.710Z,12.53
2023-02-28T10:29:08.413Z,13.63
2023-02-28T10:31:35.141Z,13.43
2023-02-28T10:34:02.511Z,12.43
2023-02-28T10:36:30.241Z,12.17
2023-02-28T10:38:57.131Z,13.53
2023-02-28T10:41:29.873Z,14.50
2023-02-28T10:44:21.886Z,12.03
2023-02-28T10:46:49.582Z,11.23
2023-02-28T10:49:25.021Z,11.47
2023-02-28T10:51:55.225Z,11.83
2023-02-28T10:54:36.243Z,11.90
2023-02-28T10:57:20.749Z,11.70
2023-02-28T10:59:52.095Z,12.47
2023-02-28T11:02:38.703Z,12.37
2023-02-28T11:05:35.470Z,13.80
2023-02-28T11:08:13.985Z,13.83
2023-02-28T11:10:41.109Z,12.00
2023-02-28T11:13:07.791Z,13.23
2023-02-28T11:15:35.412Z,12.57
2023-02-28T11:18:03.189Z,11.97
2023-02-28T11:20:32.000Z,13.10
2023-02-28T11:23:00.222Z,11.77
2023-02-28T11:25:33.260Z,11.57
2023-02-28T11:28:05.575Z,11.10
2023-02-28T11:30:39.828Z,11.03
2023-02-28T11:33:46.137Z,12.40
2023-02-28T11:36:21.415Z,10.80
2023-02-28T11:38:50.632Z,11.13
2023-02-28T11:41:29.275Z,11.80
2023-02-28T11:44:08.145Z,11.47
2023-02-28T11:46:45.258Z,12.17
2023-02-28T11:49:36.955Z,11.50
2023-02-28T11:52:37.962Z,12.47
2023-02-28T11:55:10.657Z,11.20
2023-02-28T11:57:50.615Z,10.90
2023-02-28T12:00:36.807Z,11.00
2023-02-28T12:03:29.303Z,10.87
2023-02-28T12:06:06.747Z,11.23
2023-02-28T12:08:54.041Z,10.97
2023-02-28T12:11:34.025Z,13.07
2023-02-28T12:14:22.311Z,10.97
2023-02-28T12:16:56.047Z,12.80
2023-02-28T12:19:40.297Z,12.90
2023-02-28T12:22:26.266Z,12.10
2023-02-28T12:25:08.274Z,11.90
2023-02-28T12:27:38.782Z,10.80
2023-02-28T12:30:19.442Z,13.10
2023-02-28T12:32:50.520Z,12.97
2023-02-28T12:35:27.903Z,11.37
2023-02-28T12:38:06.791Z,11.37
2023-02-28T12:40:47.154Z,12.97
2023-02-28T12:43:16.614Z,10.37
2023-02-28T12:45:50.129Z,14.13
2023-02-28T12:48:25.118Z,9.90
2023-02-28T12:50:53.273Z,10.67
2023-02-28T12:53:40.013Z,11.33
2023-02-28T12:56:13.729Z,9.33
2023-02-28T12:58:47.204Z,10.87
2023-02-28T13:02:00.477Z,9.07
2023-02-28T13:04:48.731Z,10.13
2023-02-28T13:07:50.795Z,9.33
2023-02-28T13:10:19.829Z,10.03
2023-02-28T13:12:51.906Z,8.23
2023-02-28T13:15:32.304Z,8.83
2023-02-28T13:18:00.218Z,9.43
2023-02-28T13:20:36.982Z,8.90
2023-02-28T13:23:15.370Z,8.80
2023-02-28T13:25:42.928Z,9.20
2023-02-28T13:28:17.904Z,8.50
2023-02-28T13:30:53.926Z,9.63
2023-02-28T13:33:34.574Z,9.43
2023-02-28T13:36:15.368Z,9.83
2023-02-28T13:38:48.838Z,9.73
2023-02-28T13:41:32.833Z,14.10
2023-02-28T13:44:03.120Z,8.60
2023-02-28T13:46:33.488Z,9.43
2023-02-28T13:49:32.663Z,9.10
2023-02-28T13:52:05.875Z,8.17
2023-02-28T13:55:15.664Z,8.53
2023-02-28T13:57:57.529Z,9.10
2023-02-28T14:00:34.637Z,10.87
2023-02-28T14:03:22.837Z,8.83
2023-02-28T14:06:20.199Z,9.17
2023-02-28T14:09:10.526Z,10.10
2023-02-28T14:11:41.960Z,11.13
2023-02-28T14:14:10.581Z,9.20
2023-02-28T14:17:03.721Z,8.13
2023-02-28T14:19:32.436Z,9.47
2023-02-28T14:22:42.343Z,10.13
2023-02-28T14:25:35.444Z,8.87
2023-02-28T14:28:11.137Z,9.37
2023-02-28T14:30:57.926Z,11.33
2023-02-28T14:33:41.039Z,18.00
2023-02-28T14:36:29.141Z,16.57
2023-02-28T14:39:01.226Z,69.83
2023-02-28T14:41:37.991Z,10.67
2023-02-28T14:44:19.278Z,8.90
2023-02-28T14:46:48.227Z,8.00
2023-02-28T14:49:38.761Z,8.10
2023-02-28T14:52:35.767Z,8.70
2023-02-28T14:55:15.309Z,8.30
2023-02-28T14:57:51.699Z,8.47
2023-02-28T15:00:27.175Z,16.37
2023-02-28T15:02:54.913Z,11.57
2023-02-28T15:05:35.660Z,8.93
2023-02-28T15:08:27.096Z,8.27
2023-02-28T15:11:05.502Z,8.90
2023-02-28T15:13:41.669Z,8.43
2023-02-28T15:16:41.366Z,8.87
2023-02-28T15:19:17.343Z,8.87
2023-02-28T15:21:46.462Z,8.30
2023-02-28T15:24:29.308Z,8.70
2023-02-28T15:26:58.576Z,8.03
2023-02-28T15:29:28.539Z,7.97
2023-02-28T15:32:04.150Z,8.30
2023-02-28T15:34:44.316Z,8.20
2023-02-28T15:37:36.461Z,10.47
2023-02-28T15:40:17.280Z,9.70
2023-02-28T15:43:04.727Z,8.47
2023-02-28T15:45:42.269Z,8.80
2023-02-28T15:48:27.853Z,9.47
2023-02-28T15:50:56.884Z,10.30
2023-02-28T15:53:52.819Z,11.00
2023-02-28T15:56:21.445Z,11.50
2023-02-28T15:58:48.505Z,10.80
2023-02-28T16:01:25.704Z,9.67
2023-02-28T16:03:54.868Z,9.30
2023-02-28T16:06:33.111Z,9.50
2023-02-28T16:09:02.944Z,9.80
2023-02-28T16:11:30.522Z,9.97
2023-02-28T16:14:00.865Z,9.37
2023-02-28T16:16:32.135Z,9.80
2023-02-28T16:19:02.606Z,10.87
2023-02-28T16:21:33.044Z,9.43
2023-02-28T16:24:05.091Z,10.23
2023-02-28T16:26:36.164Z,9.97
2023-02-28T16:29:06.936Z,9.43
2023-02-28T16:31:43.623Z,10.90
2023-02-28T16:34:12.954Z,9.67
2023-02-28T16:36:44.194Z,10.50
2023-02-28T16:39:11.844Z,12.03
2023-02-28T16:41:38.485Z,11.93
2023-02-28T16:44:12.867Z,10.33
2023-02-28T16:46:39.527Z,11.03
2023-02-28T16:49:12.058Z,12.70
2023-02-28T16:51:41.464Z,12.67
2023-02-28T16:54:09.439Z,10.10
2023-02-28T16:56:42.282Z,10.70
2023-02-28T16:59:11.514Z,10.73
2023-02-28T17:01:38.620Z,12.07
2023-02-28T17:04:12.089Z,12.87
2023-02-28T17:06:39.171Z,11.87
2023-02-28T17:09:16.966Z,12.20
2023-02-28T17:11:45.640Z,13.43
2023-02-28T17:14:12.228Z,14.67
2023-02-28T17:16:45.980Z,12.27
2023-02-28T17:19:16.952Z,13.70
2023-02-28T17:21:44.004Z,15.67
2023-02-28T17:24:16.532Z,12.73
2023-02-28T17:26:45.994Z,13.90
2023-02-28T17:29:19.449Z,13.60
2023-02-28T17:31:47.992Z,13.67
2023-02-28T17:34:19.405Z,13.47
2023-02-28T17:36:53.234Z,12.67
2023-02-28T17:39:25.218Z,13.13
2023-02-28T17:41:53.138Z,12.53
2023-02-28T17:44:20.894Z,13.23
2023-02-28T17:46:52.257Z,12.43
2023-02-28T17:49:44.279Z,11.73
2023-02-28T17:52:12.300Z,13.07
2023-02-28T17:54:39.430Z,11.53
2023-02-28T17:57:13.572Z,11.37
2023-02-28T17:59:41.844Z,13.53
2023-02-28T18:02:10.587Z,13.70
2023-02-28T18:04:37.287Z,12.90
2023-02-28T18:07:07.012Z,12.50
2023-02-28T18:09:33.790Z,14.27
2023-02-28T18:12:03.396Z,12.37
2023-02-28T18:14:30.083Z,12.43
2023-02-28T18:17:02.878Z,12.37
2023-02-28T18:19:29.586Z,12.67
2023-02-28T18:22:01.667Z,13.17
2023-02-28T18:24:31.491Z,14.23
2023-02-28T18:26:58.085Z,13.00
2023-02-28T18:29:48.368Z,12.50
2023-02-28T18:32:17.308Z,14.40
2023-02-28T18:34:45.206Z,14.63
2023-02-28T18:37:12.104Z,15.13
2023-02-28T18:39:38.950Z,20.13
2023-02-28T18:42:08.979Z,24.57
2023-02-28T18:44:37.633Z,24.70
2023-02-28T18:47:04.362Z,32.90
2023-02-28T18:49:34.146Z,28.40
2023-02-28T18:52:00.768Z,26.83
2023-02-28T18:54:37.189Z,29.70
2023-02-28T18:57:04.789Z,30.50
2023-02-28T18:59:33.648Z,29.40
2023-02-28T19:02:06.155Z,37.37
2023-02-28T19:04:37.727Z,31.50
2023-02-28T19:07:06.032Z,32.23
2023-02-28T19:09:35.131Z,36.33
2023-02-28T19:12:09.572Z,38.03
2023-02-28T19:14:36.314Z,39.73
2023-02-28T19:17:02.961Z,37.70
2023-02-28T19:19:29.764Z,34.37
2023-02-28T19:22:05.785Z,36.23
2023-02-28T19:24:32.663Z,29.27
2023-02-28T19:27:01.626Z,26.03
2023-02-28T19:29:28.489Z,24.47
2023-02-28T19:31:56.456Z,20.77
2023-02-28T19:34:31.699Z,21.23
2023-02-28T19:37:01.025Z,19.53
2023-02-28T19:39:41.044Z,21.70
2023-02-28T19:42:13.217Z,17.33
2023-02-28T19:44:43.052Z,17.70
2023-02-28T19:47:11.097Z,19.27
2023-02-28T19:49:40.768Z,18.43
2023-02-28T19:52:17.889Z,16.57
2023-02-28T19:54:44.687Z,21.57
2023-02-28T19:57:11.544Z,18.37
2023-02-28T19:59:40.198Z,16.47
2023-02-28T20:02:13.663Z,19.10
2023-02-28T20:04:41.003Z,18.13
2023-02-28T20:07:08.038Z,18.00
2023-02-28T20:09:37.080Z,18.40
2023-02-28T20:12:17.882Z,17.27
2023-02-28T20:14:59.665Z,18.00
2023-02-28T20:17:26.499Z,18.03
2023-02-28T20:20:02.491Z,15.73
2023-02-28T20:22:29.250Z,15.73
2023-02-28T20:24:59.363Z,16.63
2023-02-28T20:27:26.729Z,16.90
2023-02-28T20:29:53.931Z,16.10
2023-02-28T20:32:24.812Z,18.97
2023-02-28T20:34:54.865Z,17.23
2023-02-28T20:37:21.946Z,17.13
2023-02-28T20:39:54.274Z,17.03
2023-02-28T20:42:24.615Z,16.07
2023-02-28T20:44:53.874Z,18.13
2023-02-28T20:47:23.013Z,19.87
2023-02-28T20:49:50.317Z,21.20
2023-02-28T20:52:19.710Z,18.33
2023-02-28T20:54:46.673Z,17.50
2023-02-28T20:57:13.549Z,16.43
2023-02-28T20:59:41.275Z,18.10
2023-02-28T21:02:10.057Z,18.43
2023-02-28T21:04:37.899Z,17.60
2023-02-28T21:07:07.139Z,19.80
2023-02-28T21:09:39.697Z,18.43
2023-02-28T21:12:10.884Z,20.07
2023-02-28T21:14:58.658Z,19.67
2023-02-28T21:17:28.201Z,21.30
2023-02-28T21:19:57.990Z,20.80
2023-02-28T21:22:25.107Z,22.00
2023-02-28T21:24:54.145Z,23.67
2023-02-28T21:27:24.041Z,25.97
2023-02-28T21:29:51.950Z,23.17
2023-02-28T21:32:21.267Z,21.60
2023-02-28T21:34:50.792Z,25.67
2023-02-28T21:37:24.081Z,23.83
2023-02-28T21:39:53.319Z,22.70
2023-02-28T21:42:24.032Z,23.10
2023-02-28T21:44:58.823Z,26.13
2023-02-28T21:47:25.861Z,20.93
2023-02-28T21:49:53.502Z,24.43
2023-02-28T21:52:22.019Z,25.40
2023-02-28T21:54:51.337Z,24.43
2023-02-28T21:57:26.663Z,23.03
2023-02-28T21:59:53.839Z,22.77
2023-02-28T22:02:23.255Z,22.17
2023-02-28T22:04:50.737Z,22.43
2023-02-28T22:07:20.815Z,22.80
2023-02-28T22:09:48.031Z,27.83
2023-02-28T22:12:16.984Z,23.40
2023-02-28T22:14:46.867Z,21.73
2023-02-28T22:17:16.277Z,21.10
2023-02-28T22:19:43.145Z,24.33
2023-02-28T22:22:09.817Z,23.17
2023-02-28T22:24:39.176Z,24.67
2023-02-28T22:27:06.776Z,22.90
2023-02-28T22:29:35.774Z,26.20
2023-02-28T22:32:14.219Z,24.73
2023-02-28T22:34:41.473Z,23.27
2023-02-28T22:37:11.663Z,22.63
2023-02-28T22:39:40.556Z,24.93
2023-02-28T22:42:07.189Z,21.20
2023-02-28T22:44:37.035Z,22.67
2023-02-28T22:47:03.743Z,23.80
2023-02-28T22:49:35.760Z,22.83
2023-02-28T22:52:05.632Z,27.57
2023-02-28T22:54:35.945Z,23.83
2023-02-28T22:57:07.974Z,23.60
2023-02-28T22:59:41.655Z,25.10
2023-02-28T23:02:11.138Z,25.37
2023-02-28T23:04:41.267Z,23.70
2023-02-28T23:07:07.974Z,24.23
2023-02-28T23:09:35.714Z,26.23
2023-02-28T23:12:04.608Z,26.80
2023-02-28T23:14:34.026Z,27.47
2023-02-28T23:17:00.726Z,28.47
2023-02-28T23:19:30.136Z,28.87
2023-02-28T23:22:02.992Z,28.30
2023-02-28T23:24:33.723Z,26.77
2023-02-28T23:27:05.084Z,26.50
2023-02-28T23:29:31.970Z,28.77
2023-02-28T23:32:05.698Z,28.13
2023-02-28T23:34:36.510Z,26.57
2023-02-28T23:37:06.749Z,25.67
2023-02-28T23:39:35.697Z,31.47
2023-02-28T23:42:04.846Z,28.77
2023-02-28T23:44:40.762Z,26.83
2023-02-28T23:47:11.949Z,26.90
2023-02-28T23:49:43.797Z,30.53
2023-02-28T23:52:12.560Z,26.03
2023-02-28T23:54:40.302Z,26.70
2023-02-28T23:57:13.596Z,26.90
2023-02-28T23:59:44.762Z,28.00
